Impacts TAF Board INFO
FOR SITUATIONAL AWARENESS. NOT TO BE USED FOR FLIGHT PLANNING PURPOSES.
IDs:

KCVG - Cincinnati Intl, KY, US

Issued at 0549 UTC 22 Feb 2018
Updated at 0853 UTC 22 Feb 2018
Potential Impact None Slight Moderate High
Time0752Z 22/09Z 22/10Z 22/11Z 22/12Z 22/13Z 22/14Z 22/15Z 22/16Z 22/17Z 22/18Z 22/19Z 22/20Z 22/21Z>>
Type OBS PRVL PRVL PRVL PRVL PRVL PRVL PRVL PRVL PRVL PRVL PRVL PRVL PRVL
VIS 3 4 4 4 4 >6 >6 >6 >6 >6 >6 >6 >6 >6
CIG 9 7 7 7 7 7 7 7 7 7 12 12 12 12
Cover OVC OVC OVC OVC OVC BKN BKN BKN BKN BKN OVC OVC OVC OVC
FltCat IFR IFR IFR IFR IFR IFR IFR IFR IFR IFR MVFR MVFR MVFR MVFR
WX +RA BR -RA BR -RA BR -RA BR -RA BR -- -- -- -- -- -- -- -- --
WDir 40 40 40 40 40 40 40 40 40 40 50 50 50 80
WSpd 15 12 12 12 12 10 10 10 10 10 8 8 8 7
WGst -- -- -- -- -- -- -- -- -- -- -- -- -- --

Raw TAF
KCVG 220549Z 2206/2312 04012KT 4SM -RA BR OVC007
  FM221300 04010KT P6SM BKN007
  FM221800 05008KT P6SM BKN012 OVC030
  FM222100 08007KT P6SM OVC012
  FM230500 10007KT 5SM BR OVC007
  FM230800 13008KT 4SM -SHRA BR SCT007 OVC015


Raw METAR
KCVG 220752Z 04015KT 3SM +RA BR OVC009 04/04 A3041 RMK AO2 SLP300 P0016 T00390039 $
KCVG 220652Z 03015KT 4SM RA BR FEW006 BKN009 OVC013 06/06 A3041 RMK AO2 SLP299 P0013 T00560056 $
KCVG 220552Z 03015KT 6SM -RA BR OVC007 06/06 A3042 RMK AO2 SLP302 P0008 60039 T00610061 10061 20056 56016 $

METAR Board
Radar Display
Forecast Discussion

FOR SITUATIONAL AWARENESS. NOT TO BE USED FOR FLIGHT PLANNING PURPOSES.